sensor_id;sensor_type;location;lat;lon;timestamp;P1;durP1;ratioP1;P2;durP2;ratioP2
37303;SDS011;23188;51.188;16.374;2023-03-23T09:28:56;2.90;;;1.40;;
37303;SDS011;23188;51.188;16.374;2023-03-23T09:33:19;2.80;;;1.00;;
37303;SDS011;23188;51.188;16.374;2023-03-23T09:38:05;3.30;;;1.90;;
37303;SDS011;23188;51.188;16.374;2023-03-23T09:42:43;7.20;;;1.20;;
37303;SDS011;23188;51.188;16.374;2023-03-23T09:47:20;2.10;;;0.60;;
37303;SDS011;23188;51.188;16.374;2023-03-23T09:51:56;1.90;;;0.80;;
37303;SDS011;23188;51.188;16.374;2023-03-23T09:56:35;0.70;;;0.60;;
37303;SDS011;23188;51.188;16.374;2023-03-23T10:01:09;3.20;;;1.20;;
37303;SDS011;23188;51.188;16.374;2023-03-23T10:06:00;1.30;;;0.80;;
37303;SDS011;23188;51.188;16.374;2023-03-23T10:10:39;2.20;;;1.50;;
37303;SDS011;23188;51.188;16.374;2023-03-23T10:15:29;0.80;;;0.80;;
37303;SDS011;23188;51.188;16.374;2023-03-23T10:20:32;0.90;;;0.80;;
37303;SDS011;23188;51.188;16.374;2023-03-23T10:25:23;1.50;;;0.80;;
37303;SDS011;23188;51.188;16.374;2023-03-23T10:30:13;11.10;;;1.40;;
37303;SDS011;23188;51.188;16.374;2023-03-23T10:34:41;2.30;;;1.30;;
37303;SDS011;23188;51.188;16.374;2023-03-23T10:39:31;3.10;;;1.50;;
37303;SDS011;23188;51.188;16.374;2023-03-23T10:43:54;1.40;;;1.20;;
37303;SDS011;23188;51.188;16.374;2023-03-23T10:48:33;0.80;;;0.80;;
37303;SDS011;23188;51.188;16.374;2023-03-23T10:53:13;5.40;;;2.00;;
37303;SDS011;23188;51.188;16.374;2023-03-23T11:07:30;3.60;;;2.70;;
37303;SDS011;23188;51.188;16.374;2023-03-23T11:12:16;2.90;;;2.10;;
37303;SDS011;23188;51.188;16.374;2023-03-23T11:16:58;2.40;;;1.50;;
37303;SDS011;23188;51.188;16.374;2023-03-23T11:21:50;3.80;;;1.80;;
37303;SDS011;23188;51.188;16.374;2023-03-23T11:30:52;2.90;;;1.30;;
37303;SDS011;23188;51.188;16.374;2023-03-23T11:35:17;2.40;;;1.10;;
37303;SDS011;23188;51.188;16.374;2023-03-23T11:39:56;2.90;;;1.50;;
37303;SDS011;23188;51.188;16.374;2023-03-23T11:44:23;1.70;;;1.00;;
37303;SDS011;23188;51.188;16.374;2023-03-23T11:58:31;4.30;;;1.90;;
37303;SDS011;23188;51.188;16.374;2023-03-23T12:08:15;5.00;;;2.20;;
37303;SDS011;23188;51.188;16.374;2023-03-23T12:17:55;1.90;;;1.70;;
37303;SDS011;23188;51.188;16.374;2023-03-23T12:22:33;3.70;;;2.00;;
37303;SDS011;23188;51.188;16.374;2023-03-23T12:46:12;4.40;;;1.90;;
37303;SDS011;23188;51.188;16.374;2023-03-23T12:56:14;2.70;;;2.10;;
37303;SDS011;23188;51.188;16.374;2023-03-23T13:01:16;4.10;;;2.60;;
37303;SDS011;23188;51.188;16.374;2023-03-23T13:05:42;2.80;;;2.30;;
37303;SDS011;23188;51.188;16.374;2023-03-23T13:15:29;3.40;;;2.60;;
37303;SDS011;23188;51.188;16.374;2023-03-23T13:24:30;4.60;;;2.70;;
37303;SDS011;23188;51.188;16.374;2023-03-23T13:38:17;2.80;;;2.10;;
37303;SDS011;23188;51.188;16.374;2023-03-23T13:42:49;4.00;;;2.70;;
37303;SDS011;23188;51.188;16.374;2023-03-23T13:51:33;3.40;;;3.10;;
37303;SDS011;23188;51.188;16.374;2023-03-23T13:56:21;5.40;;;3.60;;
37303;SDS011;23188;51.188;16.374;2023-03-23T14:01:01;3.30;;;2.50;;
37303;SDS011;23188;51.188;16.374;2023-03-23T14:05:39;6.80;;;2.80;;
37303;SDS011;23188;51.188;16.374;2023-03-23T14:09:45;4.40;;;2.50;;
37303;SDS011;23188;51.188;16.374;2023-03-23T14:14:30;3.00;;;2.40;;
37303;SDS011;23188;51.188;16.374;2023-03-23T14:19:30;4.70;;;3.30;;
37303;SDS011;23188;51.188;16.374;2023-03-23T14:23:50;2.20;;;1.80;;
37303;SDS011;23188;51.188;16.374;2023-03-23T14:27:57;5.10;;;2.60;;
37303;SDS011;23188;51.188;16.374;2023-03-23T14:32:05;7.00;;;2.80;;
37303;SDS011;23188;51.188;16.374;2023-03-23T14:36:09;2.70;;;2.50;;
37303;SDS011;23188;51.188;16.374;2023-03-23T14:40:13;3.20;;;2.50;;
37303;SDS011;23188;51.188;16.374;2023-03-23T14:44:28;4.40;;;2.90;;
37303;SDS011;23188;51.188;16.374;2023-03-23T14:48:37;4.90;;;2.80;;
37303;SDS011;23188;51.188;16.374;2023-03-23T14:52:43;4.40;;;3.70;;
37303;SDS011;23188;51.188;16.374;2023-03-23T14:56:45;3.90;;;2.50;;
37303;SDS011;23188;51.188;16.374;2023-03-23T15:00:49;5.90;;;3.10;;
37303;SDS011;23188;51.188;16.374;2023-03-23T15:05:08;3.40;;;1.80;;
37303;SDS011;23188;51.188;16.374;2023-03-23T15:09:19;7.40;;;3.40;;
37303;SDS011;23188;51.188;16.374;2023-03-23T15:13:50;3.10;;;2.30;;
37303;SDS011;23188;51.188;16.374;2023-03-23T15:18:30;4.50;;;1.70;;
37303;SDS011;23188;51.188;16.374;2023-03-23T15:22:50;2.10;;;1.60;;
37303;SDS011;23188;51.188;16.374;2023-03-23T15:31:06;2.70;;;2.40;;
37303;SDS011;23188;51.188;16.374;2023-03-23T15:35:26;4.80;;;2.40;;
37303;SDS011;23188;51.188;16.374;2023-03-23T15:39:45;1.30;;;1.10;;
37303;SDS011;23188;51.188;16.374;2023-03-23T15:43:52;2.30;;;2.00;;
37303;SDS011;23188;51.188;16.374;2023-03-23T15:48:13;1.70;;;1.60;;
37303;SDS011;23188;51.188;16.374;2023-03-23T15:52:16;2.40;;;2.20;;
37303;SDS011;23188;51.188;16.374;2023-03-23T15:56:29;2.70;;;2.40;;
37303;SDS011;23188;51.188;16.374;2023-03-23T16:00:37;2.50;;;0.90;;
37303;SDS011;23188;51.188;16.374;2023-03-23T16:05:10;1.40;;;1.10;;
37303;SDS011;23188;51.188;16.374;2023-03-23T16:09:16;1.60;;;1.10;;
37303;SDS011;23188;51.188;16.374;2023-03-23T16:13:49;8.30;;;1.60;;
37303;SDS011;23188;51.188;16.374;2023-03-23T16:18:01;2.10;;;1.10;;
37303;SDS011;23188;51.188;16.374;2023-03-23T16:22:29;4.40;;;1.70;;
37303;SDS011;23188;51.188;16.374;2023-03-23T16:36:49;5.20;;;2.80;;
37303;SDS011;23188;51.188;16.374;2023-03-23T16:46:00;3.40;;;2.10;;
37303;SDS011;23188;51.188;16.374;2023-03-23T17:00:16;7.70;;;2.80;;
37303;SDS011;23188;51.188;16.374;2023-03-23T17:04:46;2.80;;;2.20;;
37303;SDS011;23188;51.188;16.374;2023-03-23T17:09:30;3.10;;;2.20;;
37303;SDS011;23188;51.188;16.374;2023-03-23T17:14:03;6.60;;;3.30;;
37303;SDS011;23188;51.188;16.374;2023-03-23T17:18:25;3.90;;;1.80;;
37303;SDS011;23188;51.188;16.374;2023-03-23T17:27:55;6.80;;;3.30;;
37303;SDS011;23188;51.188;16.374;2023-03-23T17:46:38;5.40;;;3.60;;
37303;SDS011;23188;51.188;16.374;2023-03-23T17:51:44;6.30;;;3.70;;
37303;SDS011;23188;51.188;16.374;2023-03-23T17:56:46;6.10;;;4.40;;
37303;SDS011;23188;51.188;16.374;2023-03-23T18:06:08;5.80;;;3.90;;
37303;SDS011;23188;51.188;16.374;2023-03-23T18:20:14;6.10;;;3.30;;
37303;SDS011;23188;51.188;16.374;2023-03-23T18:29:28;3.90;;;3.10;;
37303;SDS011;23188;51.188;16.374;2023-03-23T18:34:21;6.90;;;3.10;;
37303;SDS011;23188;51.188;16.374;2023-03-23T18:49:08;6.00;;;4.40;;
37303;SDS011;23188;51.188;16.374;2023-03-23T19:08:12;10.10;;;6.00;;
37303;SDS011;23188;51.188;16.374;2023-03-23T19:18:10;6.40;;;3.30;;
37303;SDS011;23188;51.188;16.374;2023-03-23T19:22:44;5.10;;;3.90;;
37303;SDS011;23188;51.188;16.374;2023-03-23T19:27:18;3.30;;;2.50;;
37303;SDS011;23188;51.188;16.374;2023-03-23T19:32:03;5.80;;;3.20;;
37303;SDS011;23188;51.188;16.374;2023-03-23T19:36:40;3.40;;;2.80;;
37303;SDS011;23188;51.188;16.374;2023-03-23T19:41:13;13.50;;;4.10;;
37303;SDS011;23188;51.188;16.374;2023-03-23T19:46:05;6.30;;;2.70;;
37303;SDS011;23188;51.188;16.374;2023-03-23T19:51:30;6.50;;;3.50;;
37303;SDS011;23188;51.188;16.374;2023-03-23T19:56:36;3.20;;;2.90;;
37303;SDS011;23188;51.188;16.374;2023-03-23T20:01:13;3.50;;;2.70;;
37303;SDS011;23188;51.188;16.374;2023-03-23T20:05:21;6.10;;;3.80;;
37303;SDS011;23188;51.188;16.374;2023-03-23T20:09:25;6.00;;;2.60;;
37303;SDS011;23188;51.188;16.374;2023-03-23T20:13:28;4.00;;;2.90;;
37303;SDS011;23188;51.188;16.374;2023-03-23T20:17:32;5.00;;;3.50;;
37303;SDS011;23188;51.188;16.374;2023-03-23T20:21:35;4.00;;;3.20;;
37303;SDS011;23188;51.188;16.374;2023-03-23T20:25:41;3.00;;;2.60;;
37303;SDS011;23188;51.188;16.374;2023-03-23T20:29:45;6.00;;;3.10;;
37303;SDS011;23188;51.188;16.374;2023-03-23T20:33:50;4.80;;;4.30;;
37303;SDS011;23188;51.188;16.374;2023-03-23T20:38:03;4.70;;;3.60;;
37303;SDS011;23188;51.188;16.374;2023-03-23T20:42:06;6.20;;;4.90;;
37303;SDS011;23188;51.188;16.374;2023-03-23T20:46:10;9.10;;;6.50;;
37303;SDS011;23188;51.188;16.374;2023-03-23T20:50:14;10.30;;;7.50;;
37303;SDS011;23188;51.188;16.374;2023-03-23T20:54:18;10.60;;;6.80;;
37303;SDS011;23188;51.188;16.374;2023-03-23T20:58:24;6.20;;;4.70;;
37303;SDS011;23188;51.188;16.374;2023-03-23T21:02:29;7.10;;;4.60;;
37303;SDS011;23188;51.188;16.374;2023-03-23T21:06:33;6.10;;;4.20;;
37303;SDS011;23188;51.188;16.374;2023-03-23T21:10:38;6.20;;;4.90;;
37303;SDS011;23188;51.188;16.374;2023-03-23T21:14:42;7.40;;;5.20;;
37303;SDS011;23188;51.188;16.374;2023-03-23T21:18:46;6.50;;;4.70;;
37303;SDS011;23188;51.188;16.374;2023-03-23T21:22:50;5.40;;;4.60;;
37303;SDS011;23188;51.188;16.374;2023-03-23T21:26:55;11.80;;;4.30;;
37303;SDS011;23188;51.188;16.374;2023-03-23T21:31:02;8.80;;;4.10;;
37303;SDS011;23188;51.188;16.374;2023-03-23T21:35:07;5.70;;;4.30;;
37303;SDS011;23188;51.188;16.374;2023-03-23T21:39:11;5.30;;;4.10;;
37303;SDS011;23188;51.188;16.374;2023-03-23T21:43:15;4.50;;;3.40;;
37303;SDS011;23188;51.188;16.374;2023-03-23T21:47:18;7.10;;;5.20;;
37303;SDS011;23188;51.188;16.374;2023-03-23T21:51:23;14.50;;;7.00;;
37303;SDS011;23188;51.188;16.374;2023-03-23T21:55:29;9.60;;;6.50;;
37303;SDS011;23188;51.188;16.374;2023-03-23T21:59:33;18.50;;;10.90;;
37303;SDS011;23188;51.188;16.374;2023-03-23T22:03:36;17.40;;;9.80;;
37303;SDS011;23188;51.188;16.374;2023-03-23T22:07:41;16.70;;;8.90;;
37303;SDS011;23188;51.188;16.374;2023-03-23T22:11:45;11.00;;;7.60;;
37303;SDS011;23188;51.188;16.374;2023-03-23T22:15:49;9.20;;;5.30;;
37303;SDS011;23188;51.188;16.374;2023-03-23T22:19:53;6.90;;;5.00;;
37303;SDS011;23188;51.188;16.374;2023-03-23T22:23:57;8.10;;;3.90;;
37303;SDS011;23188;51.188;16.374;2023-03-23T22:28:03;3.80;;;3.40;;
37303;SDS011;23188;51.188;16.374;2023-03-23T22:32:07;5.60;;;4.50;;
37303;SDS011;23188;51.188;16.374;2023-03-23T22:36:15;5.40;;;4.00;;
37303;SDS011;23188;51.188;16.374;2023-03-23T22:40:55;4.60;;;3.70;;
37303;SDS011;23188;51.188;16.374;2023-03-23T22:45:43;4.60;;;3.20;;
37303;SDS011;23188;51.188;16.374;2023-03-23T22:50:26;4.30;;;2.50;;
37303;SDS011;23188;51.188;16.374;2023-03-23T22:55:18;3.00;;;2.70;;
37303;SDS011;23188;51.188;16.374;2023-03-23T22:59:47;4.20;;;3.30;;
37303;SDS011;23188;51.188;16.374;2023-03-23T23:04:37;4.10;;;2.70;;
37303;SDS011;23188;51.188;16.374;2023-03-23T23:09:09;4.70;;;3.00;;
37303;SDS011;23188;51.188;16.374;2023-03-23T23:13:31;4.40;;;2.90;;
37303;SDS011;23188;51.188;16.374;2023-03-23T23:17:50;4.10;;;3.40;;
37303;SDS011;23188;51.188;16.374;2023-03-23T23:22:29;9.20;;;3.30;;
37303;SDS011;23188;51.188;16.374;2023-03-23T23:27:10;6.90;;;3.90;;
37303;SDS011;23188;51.188;16.374;2023-03-23T23:31:38;4.60;;;3.40;;
37303;SDS011;23188;51.188;16.374;2023-03-23T23:36:14;3.00;;;2.80;;
37303;SDS011;23188;51.188;16.374;2023-03-23T23:45:20;4.90;;;3.60;;
37303;SDS011;23188;51.188;16.374;2023-03-23T23:49:43;6.70;;;4.30;;
37303;SDS011;23188;51.188;16.374;2023-03-23T23:54:27;3.50;;;3.10;;
37303;SDS011;23188;51.188;16.374;2023-03-23T23:59:08;4.50;;;3.30;;
